Terminal Aerodrome Forecast
Issued by NWS Charleston, WV

Current Version | Previous Version | Graphics & Text | Print | Product List | Glossary On
Versions: 1 2 3 4 5 6 7 8 9 10 11 12 13 14 15 16 17 18 19 20 21 22 23 24 25 26
000
FTUS41 KRLX 021744
TAFBKW
TAF
KBKW 021744Z 0218/0318 29004KT 2SM -SHRA BR BKN012 OVC060
      TEMPO 0218/0219 3SM BR BKN009 OVC060
     FM021900 VRB03KT 3SM -SHRA BR OVC025
     FM022000 VRB03KT 6SM HZ VCSH OVC050
     FM030100 00000KT 3SM BR OVC008
     FM030300 00000KT 1SM BR OVC004
     FM031300 00000KT 3SM BR OVC007
     FM031400 00000KT 6SM HZ VCSH OVC015
     FM031600 VRB03KT 5SM SHRA VCTS OVC015CB=

USA.gov is the U.S. government's official web portal to all federal, state and local government web resources and services.